Time;durP1;ratioP1;P1;durP2;ratioP2;P2;SDS_P1;SDS_P2;PMS_P1;PMS_P2;Temp;Humidity;BMP_temperature;BMP_pressure;BME280_temperature;BME280_humidity;BME280_pressure;Samples;Min_cycle;Max_cycle;Signal;HPM_P1;HPM_P2
2023/07/25 00:00:09;;;;;;;12.45;7.55;;;;;;;28.88;37.88;99204.31;4859696;29;20064;-40
2023/07/25 00:02:35;;;;;;;10.20;6.93;;;;;;;28.79;38.17;99209.91;4859431;29;20117;-43
2023/07/25 00:05:04;;;;;;;9.57;6.70;;;;;;;28.21;39.56;99211.69;4860110;29;20040;-44
2023/07/25 00:07:30;;;;;;;12.70;7.53;;;;;;;28.22;39.67;99225.03;4859987;29;20037;-45
2023/07/25 00:09:56;;;;;;;11.30;6.97;;;;;;;28.23;39.86;99223.09;4860325;29;20069;-41
2023/07/25 00:12:22;;;;;;;10.98;6.82;;;;;;;28.28;40.14;99223.69;4860376;29;20032;-41
2023/07/25 00:14:47;;;;;;;11.20;7.32;;;;;;;28.14;40.43;99222.34;4860033;29;20037;-43
2023/07/25 00:17:13;;;;;;;11.60;7.15;;;;;;;28.26;39.95;99219.69;4860105;29;20041;-43
2023/07/25 00:19:38;;;;;;;12.60;7.07;;;;;;;28.28;39.80;99222.88;4860162;29;20068;-42
2023/07/25 00:22:04;;;;;;;13.63;7.40;;;;;;;28.21;40.22;99228.09;4859787;29;20029;-41
2023/07/25 00:24:29;;;;;;;10.95;6.47;;;;;;;28.11;40.53;99218.34;4859676;29;20033;-40
2023/07/25 00:26:54;;;;;;;11.10;6.47;;;;;;;27.94;41.07;99221.22;4859838;29;20033;-42
2023/07/25 00:29:20;;;;;;;9.18;6.30;;;;;;;27.50;42.04;99215.97;4845942;29;20069;-42
2023/07/25 00:31:45;;;;;;;9.20;6.75;;;;;;;27.35;42.41;99216.53;4840987;29;20384;-41
2023/07/25 00:34:11;;;;;;;10.43;6.40;;;;;;;27.35;42.55;99219.25;4841071;29;20160;-41
2023/07/25 00:36:36;;;;;;;14.32;6.47;;;;;;;27.60;42.15;99214.78;4841085;29;20170;-39
2023/07/25 00:39:02;;;;;;;10.68;6.60;;;;;;;27.91;41.46;99221.88;4841127;29;20506;-42
2023/07/25 00:41:27;;;;;;;10.90;6.32;;;;;;;27.80;41.76;99226.91;4849269;29;20038;-41
2023/07/25 00:43:53;;;;;;;9.40;6.47;;;;;;;27.75;42.03;99236.09;4859810;29;20025;-38
2023/07/25 00:46:18;;;;;;;9.07;5.95;;;;;;;27.77;42.17;99233.03;4858867;29;20029;-41
2023/07/25 00:48:45;;;;;;;9.32;6.22;;;;;;;27.77;42.11;99233.81;4859349;29;20506;-43
2023/07/25 00:51:11;;;;;;;9.50;6.30;;;;;;;27.81;42.43;99225.75;4859357;29;20044;-42
2023/07/25 00:53:36;;;;;;;10.75;6.03;;;;;;;27.86;42.12;99237.31;4859301;29;20400;-40
2023/07/25 00:56:03;;;;;;;9.13;6.20;;;;;;;27.77;42.35;99230.28;4859153;29;20042;-41
2023/07/25 00:58:29;;;;;;;13.40;6.68;;;;;;;27.73;42.59;99238.34;4859151;29;20025;-39
2023/07/25 01:01:03;;;;;;;11.18;6.55;;;;;;;27.60;42.33;99236.66;4859094;29;20104;-41
2023/07/25 01:03:29;;;;;;;11.30;7.00;;;;;;;27.57;42.38;99238.13;4841935;29;20045;-40
2023/07/25 01:05:56;;;;;;;11.90;6.70;;;;;;;27.67;42.53;99235.00;4840373;29;20034;-40
2023/07/25 01:08:22;;;;;;;12.18;6.75;;;;;;;27.77;42.55;99238.50;4840356;29;20076;-42
2023/07/25 01:10:47;;;;;;;10.32;6.65;;;;;;;27.57;42.53;99235.41;4840865;29;20061;-42
2023/07/25 01:13:13;;;;;;;12.65;6.28;;;;;;;27.76;42.31;99234.97;4840642;29;20086;-40
2023/07/25 01:15:39;;;;;;;10.73;6.93;;;;;;;27.52;43.20;99237.50;4840709;29;20026;-40
2023/07/25 01:18:06;;;;;;;9.93;6.35;;;;;;;27.19;44.31;99241.63;4840631;29;20341;-41
2023/07/25 01:20:34;;;;;;;10.45;6.57;;;;;;;27.20;44.55;99236.94;4840380;29;20042;-41
2023/07/25 01:23:01;;;;;;;10.07;6.15;;;;;;;27.21;44.02;99235.84;4840226;29;20479;-42
2023/07/25 01:25:27;;;;;;;11.27;6.30;;;;;;;27.36;43.86;99237.22;4840552;29;20053;-41
2023/07/25 01:27:52;;;;;;;11.65;6.32;;;;;;;27.47;44.24;99236.56;4842459;29;20521;-42
2023/07/25 01:30:18;;;;;;;11.85;6.85;;;;;;;27.46;44.12;99234.16;4858741;29;20041;-41
2023/07/25 01:32:43;;;;;;;10.95;5.85;;;;;;;27.40;43.75;99239.00;4858710;29;20072;-40
2023/07/25 01:35:08;;;;;;;10.60;6.30;;;;;;;27.12;44.54;99230.41;4858683;29;20057;-41
2023/07/25 01:37:34;;;;;;;12.50;6.45;;;;;;;26.90;44.80;99240.41;4858839;29;20505;-42
2023/07/25 01:39:59;;;;;;;10.35;6.07;;;;;;;26.90;45.20;99234.13;4858527;29;20409;-41
2023/07/25 01:42:25;;;;;;;10.43;5.97;;;;;;;26.95;45.55;99244.88;4872675;29;20029;-40
2023/07/25 01:44:50;;;;;;;12.68;6.05;;;;;;;27.04;45.59;99244.88;4876900;29;20044;-39
2023/07/25 01:47:15;;;;;;;11.85;6.43;;;;;;;27.05;45.20;99241.81;4877049;29;20207;-40
2023/07/25 01:49:41;;;;;;;10.40;6.70;;;;;;;26.92;45.64;99251.81;4876954;29;20032;-41
2023/07/25 01:52:07;;;;;;;10.88;6.47;;;;;;;26.97;45.30;99244.56;4877172;29;20462;-40
2023/07/25 01:54:32;;;;;;;9.40;6.07;;;;;;;26.91;45.65;99244.75;4877089;29;20433;-40
2023/07/25 01:56:58;;;;;;;10.43;6.40;;;;;;;26.91;45.66;99241.22;4876899;29;20406;-40
2023/07/25 01:59:23;;;;;;;9.75;6.15;;;;;;;27.11;45.20;99228.78;4876096;29;20032;-42
2023/07/25 02:01:48;;;;;;;11.65;6.47;;;;;;;26.94;45.49;99235.13;4876595;29;20105;-40
2023/07/25 02:04:14;;;;;;;10.85;6.65;;;;;;;26.94;45.96;99245.22;4876317;29;20108;-42
2023/07/25 02:06:39;;;;;;;11.27;6.90;;;;;;;26.97;45.85;99244.56;4875955;29;20473;-41
2023/07/25 02:09:05;;;;;;;11.25;6.65;;;;;;;26.84;46.10;99238.97;4876497;29;20037;-42
2023/07/25 02:11:30;;;;;;;12.25;6.80;;;;;;;26.71;46.95;99245.41;4876357;29;20029;-40
2023/07/25 02:13:56;;;;;;;9.43;6.35;;;;;;;26.94;46.32;99250.66;4876693;29;20029;-41
2023/07/25 02:16:21;;;;;;;10.43;6.60;;;;;;;26.76;47.12;99258.91;4877130;29;20021;-41
2023/07/25 02:18:46;;;;;;;10.23;6.97;;;;;;;26.50;47.53;99248.78;4876752;29;20472;-40
2023/07/25 02:21:12;;;;;;;12.52;6.38;;;;;;;26.91;46.65;99252.94;4876799;29;20529;-41
2023/07/25 02:23:37;;;;;;;12.30;6.65;;;;;;;27.00;46.40;99254.84;4865751;29;20352;-42
2023/07/25 02:26:03;;;;;;;9.85;6.65;;;;;;;26.70;47.53;99249.28;4857962;29;20112;-41
2023/07/25 02:28:28;;;;;;;9.52;6.38;;;;;;;26.61;47.44;99252.00;4857773;29;20059;-42
2023/07/25 02:30:54;;;;;;;9.77;6.25;;;;;;;26.48;48.04;99261.94;4858104;29;20063;-41
2023/07/25 02:33:19;;;;;;;11.15;6.20;;;;;;;26.46;48.19;99250.53;4857989;29;20030;-41
2023/07/25 02:35:44;;;;;;;12.73;6.60;;;;;;;26.22;48.64;99253.75;4857962;29;20034;-41
2023/07/25 02:38:10;;;;;;;10.52;6.40;;;;;;;26.39;49.11;99250.22;4857774;29;20029;-42
2023/07/25 02:40:35;;;;;;;10.05;5.60;;;;;;;26.36;49.50;99252.78;4857865;29;20041;-40
2023/07/25 02:43:02;;;;;;;9.60;5.45;;;;;;;26.22;50.04;99251.03;4875779;29;20123;-40
2023/07/25 02:45:28;;;;;;;8.23;5.45;;;;;;;26.21;50.20;99256.78;4876382;29;20494;-41
2023/07/25 02:47:53;;;;;;;9.93;6.13;;;;;;;26.19;50.29;99259.03;4876292;29;20047;-41
2023/07/25 02:50:19;;;;;;;11.38;6.32;;;;;;;26.18;50.22;99258.25;4876572;29;20035;-40
2023/07/25 02:52:44;;;;;;;8.73;5.65;;;;;;;26.10;50.80;99262.56;4876514;29;20025;-41
2023/07/25 02:55:10;;;;;;;11.00;6.05;;;;;;;25.98;51.06;99261.56;4876525;29;20143;-40
2023/07/25 02:57:35;;;;;;;10.35;5.90;;;;;;;26.00;51.17;99259.31;4876570;29;20037;-40
2023/07/25 03:00:00;;;;;;;9.82;5.63;;;;;;;25.97;51.22;99246.31;4876251;29;20049;-40
2023/07/25 03:02:26;;;;;;;10.48;5.70;;;;;;;26.08;51.02;99251.19;4876139;29;20403;-40
2023/07/25 03:04:51;;;;;;;8.35;5.90;;;;;;;26.06;50.87;99261.56;4876492;29;20032;-41
2023/07/25 03:07:17;;;;;;;10.88;5.97;;;;;;;26.16;50.66;99265.13;4876217;29;20045;-41
2023/07/25 03:09:43;;;;;;;8.10;6.10;;;;;;;26.20;50.70;99266.91;4874587;29;20061;-41
2023/07/25 03:12:08;;;;;;;8.95;5.72;;;;;;;26.15;50.73;99272.50;4860122;29;20040;-40
2023/07/25 03:14:34;;;;;;;8.82;5.75;;;;;;;26.05;51.05;99276.34;4860912;29;20025;-40
2023/07/25 03:16:59;;;;;;;10.07;6.13;;;;;;;26.15;50.97;99269.78;4860990;29;20029;-41
2023/07/25 03:19:24;;;;;;;9.23;6.25;;;;;;;26.06;51.28;99279.84;4861342;29;20033;-40
2023/07/25 03:21:50;;;;;;;11.57;6.15;;;;;;;26.03;51.58;99289.47;4861199;29;20397;-42
2023/07/25 03:24:16;;;;;;;14.25;6.72;;;;;;;25.98;51.23;99272.47;4861042;29;20029;-41
2023/07/25 03:26:42;;;;;;;12.68;6.93;;;;;;;25.89;51.33;99277.88;4861209;29;20414;-41
2023/07/25 03:29:07;;;;;;;13.20;7.38;;;;;;;25.92;50.80;99277.28;4849066;29;20690;-40
2023/07/25 03:31:32;;;;;;;16.00;7.78;;;;;;;25.97;50.40;99277.13;4842210;29;20125;-40
2023/07/25 03:33:58;;;;;;;11.63;7.53;;;;;;;26.04;49.87;99285.63;4842287;29;20037;-44
2023/07/25 03:36:24;;;;;;;11.73;7.38;;;;;;;26.20;49.42;99287.88;4841674;29;20034;-40
2023/07/25 03:38:49;;;;;;;11.20;7.05;;;;;;;26.21;49.10;99279.41;4841856;29;20392;-41
2023/07/25 03:41:15;;;;;;;14.18;7.13;;;;;;;26.09;49.57;99273.78;4842751;29;20120;-43
2023/07/25 03:43:40;;;;;;;13.40;7.05;;;;;;;25.94;49.95;99285.94;4841680;29;20032;-39
2023/07/25 03:46:06;;;;;;;19.35;7.38;;;;;;;25.88;49.97;99273.53;4841548;29;20597;-42
2023/07/25 03:48:32;;;;;;;13.68;7.60;;;;;;;25.90;50.10;99282.19;4841549;29;20026;-41
2023/07/25 03:50:57;;;;;;;11.90;7.53;;;;;;;26.01;50.22;99282.72;4841070;29;20030;-41
2023/07/25 03:53:23;;;;;;;13.63;7.50;;;;;;;26.07;50.18;99276.03;4840892;29;20090;-41
2023/07/25 03:55:48;;;;;;;12.20;6.88;;;;;;;26.09;49.76;99252.75;4841578;29;20560;-40
2023/07/25 03:58:13;;;;;;;12.65;7.05;;;;;;;26.45;49.39;99262.56;4841298;29;20030;-41
2023/07/25 04:00:41;;;;;;;11.57;7.07;;;;;;;26.49;49.33;99269.00;4841014;29;20102;-39
2023/07/25 04:03:06;;;;;;;11.50;6.75;;;;;;;26.58;49.70;99279.09;4842028;29;20036;-40
2023/07/25 04:05:32;;;;;;;13.38;6.50;;;;;;;26.73;48.94;99273.16;4842240;29;20025;-40
2023/07/25 04:07:57;;;;;;;12.35;7.40;;;;;;;26.99;48.25;99269.63;4842132;29;20032;-41
2023/07/25 04:10:22;;;;;;;13.05;8.10;;;;;;;27.16;48.14;99272.31;4842190;29;20336;-41
2023/07/25 04:12:48;;;;;;;10.10;6.80;;;;;;;27.21;48.51;99277.59;4841667;29;20467;-40
2023/07/25 04:15:13;;;;;;;13.25;7.40;;;;;;;27.30;47.75;99278.41;4841736;29;20034;-41
2023/07/25 04:17:39;;;;;;;11.70;6.80;;;;;;;27.61;47.09;99273.78;4841668;29;20034;-40
2023/07/25 04:20:05;;;;;;;9.48;6.82;;;;;;;27.64;46.81;99265.72;4841923;29;20104;-41
2023/07/25 04:22:30;;;;;;;13.52;6.90;;;;;;;27.88;46.17;99272.53;4840169;29;20034;-42
2023/07/25 04:24:56;;;;;;;10.50;6.53;;;;;;;28.05;45.94;99271.66;4841512;29;20036;-42
2023/07/25 04:27:21;;;;;;;13.77;6.93;;;;;;;28.39;45.07;99281.53;4841502;29;20431;-40
2023/07/25 04:29:46;;;;;;;13.27;7.00;;;;;;;28.37;45.58;99285.72;4841561;29;20073;-42
2023/07/25 04:32:12;;;;;;;11.80;6.35;;;;;;;28.58;45.41;99281.09;4841722;29;20028;-42
2023/07/25 04:34:37;;;;;;;10.25;5.90;;;;;;;28.73;44.97;99287.06;4841637;29;20061;-41
2023/07/25 04:37:03;;;;;;;10.05;6.35;;;;;;;29.04;43.99;99281.94;4841751;29;20029;-42
2023/07/25 04:39:28;;;;;;;12.80;7.28;;;;;;;29.44;43.41;99292.31;4841639;29;20072;-40
2023/07/25 04:41:54;;;;;;;10.32;6.75;;;;;;;29.94;42.02;99282.19;4846292;29;20038;-43
2023/07/25 04:44:19;;;;;;;10.75;5.97;;;;;;;29.61;43.03;99285.84;4859830;29;20037;-42
2023/07/25 04:46:45;;;;;;;11.05;6.07;;;;;;;29.28;43.93;99285.91;4846344;29;20041;-42
2023/07/25 04:49:11;;;;;;;7.88;5.80;;;;;;;29.28;44.06;99285.09;4841308;29;20026;-40
2023/07/25 04:51:40;;;;;;;10.18;5.80;;;;;;;29.50;44.21;99292.13;4841389;29;20072;-41
2023/07/25 04:54:07;;;;;;;10.98;6.53;;;;;;;29.54;43.36;99285.59;4840894;29;20058;-42
2023/07/25 04:56:32;;;;;;;13.80;7.03;;;;;;;29.82;42.66;99290.44;4840964;29;20025;-42
2023/07/25 04:58:58;;;;;;;11.80;6.90;;;;;;;29.94;42.39;99284.94;4840884;29;20404;-41
2023/07/25 05:01:23;;;;;;;10.15;6.13;;;;;;;30.11;42.74;99274.88;4840040;29;20140;-41
2023/07/25 05:03:48;;;;;;;12.45;5.90;;;;;;;30.40;41.61;99282.03;4840215;29;20037;-40
2023/07/25 05:06:14;;;;;;;11.07;6.68;;;;;;;30.93;40.58;99280.00;4840629;29;20567;-43
2023/07/25 05:08:39;;;;;;;14.07;6.55;;;;;;;31.14;40.42;99285.28;4840590;29;20033;-42
2023/07/25 05:11:05;;;;;;;10.95;5.63;;;;;;;30.37;41.96;99280.78;4840334;29;20034;-41
2023/07/25 05:13:30;;;;;;;8.82;5.63;;;;;;;30.31;42.24;99284.88;4840008;29;20033;-43
2023/07/25 05:15:56;;;;;;;8.93;5.72;;;;;;;30.23;42.51;99287.75;4840342;29;20094;-41
2023/07/25 05:18:21;;;;;;;7.95;5.72;;;;;;;30.59;42.07;99281.38;4840224;29;20101;-43
2023/07/25 05:20:47;;;;;;;10.25;5.47;;;;;;;31.24;40.88;99288.66;4840030;29;20116;-42
2023/07/25 05:23:12;;;;;;;9.43;5.97;;;;;;;31.26;40.71;99289.88;4839531;29;20114;-42
2023/07/25 05:25:38;;;;;;;10.68;6.30;;;;;;;32.03;39.04;99276.88;4853091;29;20173;-42
2023/07/25 05:28:04;;;;;;;11.45;6.03;;;;;;;31.75;39.77;99286.81;4848950;29;20053;-42
2023/07/25 05:30:29;;;;;;;13.27;5.40;;;;;;;31.74;39.67;99284.44;4876883;29;20037;-44
2023/07/25 05:32:55;;;;;;;11.73;5.65;;;;;;;31.62;40.16;99290.81;4877489;29;20037;-42
2023/07/25 05:35:20;;;;;;;8.98;5.57;;;;;;;31.85;40.02;99293.72;4877426;29;20024;-45
2023/07/25 05:37:45;;;;;;;9.38;5.22;;;;;;;32.09;38.96;99289.19;4877152;29;20569;-43
2023/07/25 05:40:11;;;;;;;10.07;5.53;;;;;;;31.82;39.69;99285.41;4877334;29;20473;-42
2023/07/25 05:42:36;;;;;;;9.73;5.30;;;;;;;32.44;38.40;99280.09;4862992;29;20033;-41
2023/07/25 05:45:02;;;;;;;10.27;5.70;;;;;;;32.81;37.71;99274.19;4858242;29;20048;-43
2023/07/25 05:47:28;;;;;;;9.45;5.75;;;;;;;32.40;38.93;99273.72;4856727;29;20307;-41
2023/07/25 05:49:55;;;;;;;10.93;5.85;;;;;;;32.42;38.80;99274.16;4857172;29;20063;-42
2023/07/25 05:52:20;;;;;;;7.93;5.05;;;;;;;32.54;38.95;99288.56;4855760;29;20048;-41
2023/07/25 05:54:45;;;;;;;8.10;5.13;;;;;;;32.37;38.70;99286.25;4857918;29;20025;-42
2023/07/25 05:57:11;;;;;;;10.52;5.57;;;;;;;32.30;38.93;99278.63;4856118;29;20483;-42
2023/07/25 05:59:36;;;;;;;8.23;5.05;;;;;;;32.89;38.41;99284.94;4856402;29;20562;-42
2023/07/25 06:02:03;;;;;;;9.43;5.50;;;;;;;33.04;37.65;99277.75;4856253;29;20037;-42
2023/07/25 06:04:29;;;;;;;7.50;5.30;;;;;;;32.82;37.81;99276.53;4855663;29;20053;-42
2023/07/25 06:06:55;;;;;;;8.38;5.15;;;;;;;32.61;38.52;99268.66;4855107;29;20079;-44
2023/07/25 06:09:20;;;;;;;12.40;5.57;;;;;;;32.75;38.34;99262.66;4855929;29;20079;-41
2023/07/25 06:11:46;;;;;;;10.32;5.68;;;;;;;32.80;38.40;99258.78;4855926;29;20498;-43
2023/07/25 06:14:11;;;;;;;8.85;5.53;;;;;;;33.02;38.38;99265.50;4855222;29;20056;-41
2023/07/25 06:16:36;;;;;;;11.95;5.78;;;;;;;33.33;37.11;99263.72;4854751;29;20105;-43
2023/07/25 06:19:02;;;;;;;10.13;5.20;;;;;;;33.60;36.72;99259.00;4856180;29;20033;-41
2023/07/25 06:21:27;;;;;;;7.28;5.43;;;;;;;33.31;37.43;99256.59;4857243;29;20410;-41
2023/07/25 06:23:53;;;;;;;8.00;5.10;;;;;;;33.78;36.67;99262.88;4857057;29;20065;-42
2023/07/25 06:26:18;;;;;;;10.38;5.97;;;;;;;33.81;35.95;99259.34;4858071;29;20116;-43
2023/07/25 06:28:44;;;;;;;9.15;5.85;;;;;;;33.74;36.19;99253.75;4849100;29;20068;-41
2023/07/25 06:31:10;;;;;;;9.05;5.95;;;;;;;33.68;36.76;99249.69;4839835;29;20041;-42
2023/07/25 06:33:35;;;;;;;9.60;6.20;;;;;;;34.46;34.77;99238.16;4840054;29;20069;-43
2023/07/25 06:36:01;;;;;;;10.02;5.97;;;;;;;34.52;35.17;99228.38;4839672;29;20128;-44
2023/07/25 06:38:26;;;;;;;9.85;5.75;;;;;;;34.47;34.97;99237.78;4839745;29;20463;-46
2023/07/25 06:40:52;;;;;;;12.52;6.10;;;;;;;33.95;35.66;99231.19;4839320;29;20030;-43
2023/07/25 06:43:17;;;;;;;9.55;5.88;;;;;;;34.51;34.99;99235.06;4857895;29;20411;-41
2023/07/25 06:45:42;;;;;;;10.43;5.78;;;;;;;35.13;34.01;99233.72;4860434;29;20029;-45
2023/07/25 06:48:08;;;;;;;9.43;6.93;;;;;;;34.94;34.03;99240.25;4861527;29;20037;-41
2023/07/25 06:50:33;;;;;;;11.45;5.93;;;;;;;34.84;34.78;99233.47;4861397;29;20033;-44
2023/07/25 06:52:59;;;;;;;13.68;5.80;;;;;;;35.05;33.86;99230.91;4861154;29;20143;-44
2023/07/25 06:55:25;;;;;;;11.07;6.10;;;;;;;35.36;33.25;99234.34;4861543;29;20060;-43
2023/07/25 06:57:51;;;;;;;12.00;6.07;;;;;;;35.82;32.67;99219.28;4861473;29;20161;-42
2023/07/25 07:00:16;;;;;;;10.95;6.00;;;;;;;35.84;32.88;99218.91;4861514;29;20116;-42
2023/07/25 07:02:42;;;;;;;9.02;6.35;;;;;;;35.92;32.41;99214.97;4861264;29;20502;-43
2023/07/25 07:05:08;;;;;;;8.68;6.30;;;;;;;35.85;31.97;99196.34;4861252;29;20439;-44
2023/07/25 07:07:33;;;;;;;9.60;5.60;;;;;;;35.63;32.18;99201.75;4861112;29;20443;-43
2023/07/25 07:09:59;;;;;;;10.00;6.05;;;;;;;36.04;31.74;99211.09;4860844;29;20061;-43
2023/07/25 07:12:24;;;;;;;10.00;6.25;;;;;;;36.15;31.67;99204.41;4860621;29;20025;-45
2023/07/25 07:14:50;;;;;;;8.65;6.07;;;;;;;36.57;32.01;99207.72;4860654;29;20083;-42
2023/07/25 07:17:17;;;;;;;10.95;6.05;;;;;;;36.53;31.19;99201.41;4861137;29;20034;-42
2023/07/25 07:19:42;;;;;;;10.82;6.30;;;;;;;37.31;30.05;99211.03;4860782;29;20513;-44
2023/07/25 07:22:07;;;;;;;11.57;6.32;;;;;;;36.23;31.01;99210.00;4860427;29;20030;-44
2023/07/25 07:24:33;;;;;;;11.10;6.57;;;;;;;35.97;31.78;99209.09;4860181;29;20459;-41
2023/07/25 07:26:58;;;;;;;11.40;6.60;;;;;;;35.61;31.77;99206.88;4860479;29;20061;-44
2023/07/25 07:29:24;;;;;;;9.30;5.95;;;;;;;35.80;32.01;99197.53;4860519;29;20053;-46
2023/07/25 07:31:49;;;;;;;9.77;6.03;;;;;;;35.80;32.04;99194.75;4860395;29;20430;-43
2023/07/25 07:34:17;;;;;;;11.00;6.78;;;;;;;36.73;30.18;99188.03;4860467;29;20490;-41
2023/07/25 07:36:43;;;;;;;10.02;6.43;;;;;;;36.81;30.42;99194.38;4860563;29;20084;-44
2023/07/25 07:39:10;;;;;;;13.65;6.13;;;;;;;36.44;30.12;99181.59;4860297;29;20084;-43
2023/07/25 07:41:35;;;;;;;10.25;6.30;;;;;;;36.38;30.36;99176.41;4859777;29;20085;-42
2023/07/25 07:44:01;;;;;;;13.98;6.50;;;;;;;36.84;29.80;99165.84;4860406;29;20029;-45
2023/07/25 07:46:30;;;;;;;13.82;6.43;;;;;;;37.29;29.13;99152.38;4860406;29;20081;-42
2023/07/25 07:48:57;;;;;;;11.98;6.55;;;;;;;37.31;28.86;99153.56;4860005;29;20459;-42
2023/07/25 07:51:23;;;;;;;11.07;6.30;;;;;;;38.16;28.35;99148.19;4860353;29;20112;-43
2023/07/25 07:53:49;;;;;;;10.05;6.20;;;;;;;38.04;28.51;99145.81;4860025;29;20582;-41
2023/07/25 07:56:14;;;;;;;12.00;6.55;;;;;;;37.94;28.53;99142.69;4859975;29;20093;-42
2023/07/25 07:58:40;;;;;;;13.18;6.53;;;;;;;38.17;28.20;99135.09;4859989;29;20022;-42
2023/07/25 08:01:16;;;;;;;10.18;6.28;;;;;;;38.19;27.34;99143.81;4859744;29;20094;-42
2023/07/25 08:03:42;;;;;;;9.65;6.15;;;;;;;38.37;27.86;99135.38;4859688;29;20029;-43
2023/07/25 08:06:07;;;;;;;10.63;6.70;;;;;;;38.20;28.05;99140.63;4859849;29;20447;-41
2023/07/25 08:08:33;;;;;;;10.45;7.18;;;;;;;37.69;27.88;99140.03;4859879;29;20025;-42
2023/07/25 08:10:58;;;;;;;12.55;6.90;;;;;;;37.36;28.41;99127.41;4860037;29;20031;-43
2023/07/25 08:13:24;;;;;;;9.48;6.90;;;;;;;36.98;29.14;99124.28;4859910;29;20164;-42
2023/07/25 08:15:49;;;;;;;14.40;7.38;;;;;;;37.56;28.88;99111.88;4859726;29;20033;-42
2023/07/25 08:18:14;;;;;;;11.52;6.88;;;;;;;38.22;27.60;99115.22;4859668;29;20029;-43
2023/07/25 08:20:40;;;;;;;12.55;6.90;;;;;;;37.95;27.44;99112.97;4859779;29;20029;-42
2023/07/25 08:23:06;;;;;;;13.07;7.00;;;;;;;38.01;26.34;99111.34;4859393;29;20403;-43
2023/07/25 08:25:31;;;;;;;10.23;7.00;;;;;;;37.91;26.26;99120.53;4859620;29;20029;-42
2023/07/25 08:27:56;;;;;;;21.90;7.82;;;;;;;37.93;26.70;99110.59;4859464;29;20065;-43
2023/07/25 08:30:22;;;;;;;11.40;6.75;;;;;;;38.44;26.29;99107.53;4859607;29;20048;-42
2023/07/25 08:32:48;;;;;;;31.15;10.18;;;;;;;38.85;25.80;99101.28;4859223;29;20162;-42
2023/07/25 08:35:13;;;;;;;17.55;7.60;;;;;;;38.81;25.68;99104.09;4859235;29;20033;-44
2023/07/25 08:37:38;;;;;;;12.63;7.32;;;;;;;39.02;25.12;99096.81;4859653;29;20113;-43
2023/07/25 08:40:04;;;;;;;10.93;6.60;;;;;;;38.65;26.31;99092.72;4859497;29;20423;-42
2023/07/25 08:42:32;;;;;;;11.00;6.53;;;;;;;38.89;25.72;99090.94;4859270;29;20029;-42
2023/07/25 08:44:59;;;;;;;11.63;6.80;;;;;;;39.30;26.13;99095.72;4859258;29;20030;-42
2023/07/25 08:47:28;;;;;;;13.50;7.00;;;;;;;39.34;26.80;99084.53;4859181;29;20036;-43
2023/07/25 08:49:56;;;;;;;11.80;6.47;;;;;;;38.83;26.99;99079.47;4859304;29;20089;-43
2023/07/25 08:52:30;;;;;;;9.50;6.75;;;;;;;38.96;26.78;99088.09;4858933;29;20061;-43
2023/07/25 08:54:56;;;;;;;9.98;6.28;;;;;;;38.71;26.53;99071.63;4858981;29;20036;-44
2023/07/25 08:57:22;;;;;;;12.32;6.90;;;;;;;38.38;27.42;99073.84;4858643;29;20029;-45
2023/07/25 08:59:50;;;;;;;8.63;6.32;;;;;;;38.19;27.63;99075.16;4859010;29;20064;-45
2023/07/25 09:02:16;;;;;;;8.77;6.53;;;;;;;38.53;27.17;99066.19;4859243;29;20042;-43
2023/07/25 09:04:43;;;;;;;9.70;6.47;;;;;;;39.04;26.95;99063.81;4859106;29;20278;-42
2023/07/25 09:07:09;;;;;;;9.73;6.40;;;;;;;39.36;26.10;99055.09;4858958;29;20068;-43
2023/07/25 09:09:35;;;;;;;9.50;6.30;;;;;;;39.34;26.71;99054.72;4859326;29;20029;-44
2023/07/25 09:12:00;;;;;;;8.57;6.90;;;;;;;38.54;27.16;99056.69;4858949;29;20062;-42
2023/07/25 09:14:27;;;;;;;9.93;6.57;;;;;;;38.50;27.72;99053.13;4858696;29;20328;-42
2023/07/25 09:16:53;;;;;;;8.10;6.55;;;;;;;38.22;28.05;99045.78;4859226;29;20109;-42
2023/07/25 09:19:19;;;;;;;10.40;6.22;;;;;;;38.58;27.85;99049.09;4858602;29;20049;-42
2023/07/25 09:21:49;;;;;;;8.50;6.70;;;;;;;38.65;26.32;99040.72;4858492;29;20085;-43
2023/07/25 09:24:15;;;;;;;11.90;7.00;;;;;;;38.45;27.96;99043.22;4858391;29;20026;-46
2023/07/25 09:26:46;;;;;;;8.77;6.68;;;;;;;37.49;29.28;99031.47;4858834;29;20104;-43
2023/07/25 09:29:12;;;;;;;10.13;6.53;;;;;;;36.74;30.46;99039.94;4858780;29;20506;-43
2023/07/25 09:31:46;;;;;;;9.52;6.70;;;;;;;36.55;30.50;99036.34;4858713;29;20085;-44
2023/07/25 09:34:17;;;;;;;11.60;6.50;;;;;;;36.99;29.63;99037.13;4858884;29;20085;-42
2023/07/25 09:36:47;;;;;;;8.80;6.60;;;;;;;36.95;29.99;99022.50;4858838;29;20044;-42
2023/07/25 09:39:13;;;;;;;8.73;6.68;;;;;;;37.40;29.36;99011.69;4858387;29;20036;-42
2023/07/25 09:41:39;;;;;;;11.50;7.10;;;;;;;37.08;29.38;99025.63;4858207;29;20057;-42
2023/07/25 09:44:07;;;;;;;10.55;7.47;;;;;;;36.86;28.48;99009.06;4858441;29;20034;-43
2023/07/25 09:46:33;;;;;;;;;;;;;;;36.87;27.42;99020.94;4858608;29;20040;-42
2023/07/25 09:48:58;;;;;;;12.55;7.30;;;;;;;36.82;27.72;99030.41;4858774;29;19916;-42
2023/07/25 09:51:24;;;;;;;10.30;7.18;;;;;;;36.84;28.09;99024.50;4858535;29;20063;-42
2023/07/25 09:53:51;;;;;;;10.23;6.82;;;;;;;36.73;28.26;99027.28;4858791;29;20058;-43
2023/07/25 09:56:17;;;;;;;9.90;7.10;;;;;;;36.75;28.43;99030.47;4858527;29;20041;-44
2023/07/25 09:58:42;;;;;;;14.35;7.63;;;;;;;36.73;27.75;99018.97;4858523;29;20097;-42
2023/07/25 10:01:10;;;;;;;14.85;7.57;;;;;;;36.70;27.94;98997.59;4858665;29;20040;-40
2023/07/25 10:03:36;;;;;;;16.50;7.78;;;;;;;36.71;28.12;99011.06;4858469;29;20120;-41
2023/07/25 10:06:04;;;;;;;14.77;7.68;;;;;;;37.13;27.85;99003.06;4858282;29;20147;-42
2023/07/25 10:08:30;;;;;;;10.85;7.57;;;;;;;37.48;27.06;99002.13;4858168;29;20554;-42
2023/07/25 10:10:56;;;;;;;11.77;7.43;;;;;;;36.94;28.27;99001.53;4858161;29;20039;-42
2023/07/25 10:13:22;;;;;;;15.55;7.85;;;;;;;36.90;28.04;98997.94;4858267;29;20084;-40
2023/07/25 10:15:49;;;;;;;10.10;7.22;;;;;;;37.37;27.82;98991.06;4858118;29;20029;-42
2023/07/25 10:18:23;;;;;;;12.45;7.78;;;;;;;37.33;27.99;98983.97;4858386;29;20037;-41
2023/07/25 10:20:49;;;;;;;12.32;7.65;;;;;;;37.70;27.33;98985.41;4861310;29;20076;-43
2023/07/25 10:23:15;;;;;;;10.50;7.22;;;;;;;37.79;27.92;98998.84;4862093;29;20029;-42
2023/07/25 10:25:41;;;;;;;10.85;7.40;;;;;;;38.06;27.31;98985.16;4862233;29;20055;-43
2023/07/25 10:28:07;;;;;;;13.77;7.97;;;;;;;38.17;27.14;98988.69;4861924;29;20049;-42
2023/07/25 10:30:42;;;;;;;11.73;7.43;;;;;;;38.47;27.06;98979.69;4861582;29;20128;-41
2023/07/25 10:33:08;;;;;;;11.00;7.35;;;;;;;38.54;26.77;98976.09;4861913;29;20483;-42
2023/07/25 10:35:56;;;;;;;13.25;7.43;;;;;;;37.85;27.49;98956.38;4862014;29;20077;-41
2023/07/25 10:38:35;;;;;;;12.80;7.40;;;;;;;38.41;27.51;98950.78;4862104;29;20064;-41
2023/07/25 10:41:01;;;;;;;10.32;7.07;;;;;;;38.42;26.77;98951.56;4861490;29;20465;-41
2023/07/25 10:43:29;;;;;;;12.10;6.80;;;;;;;38.44;26.77;98947.19;4861537;29;20486;-42
2023/07/25 10:45:56;;;;;;;9.93;7.25;;;;;;;38.59;26.71;98945.06;4861461;29;20108;-43
2023/07/25 10:48:33;;;;;;;13.53;7.10;;;;;;;39.23;25.97;98934.44;4861696;29;20045;-45
2023/07/25 10:50:59;;;;;;;10.88;6.95;;;;;;;40.01;25.58;98932.56;4861508;29;20033;-43
2023/07/25 10:53:25;;;;;;;11.75;7.38;;;;;;;39.57;25.83;98925.28;4861357;29;20030;-43
2023/07/25 10:56:03;;;;;;;11.05;6.85;;;;;;;39.23;25.60;98921.31;4861618;29;20033;-42
2023/07/25 10:58:29;;;;;;;13.55;7.20;;;;;;;39.27;25.11;98927.63;4861653;29;20040;-44
2023/07/25 11:00:54;;;;;;;12.05;6.78;;;;;;;39.50;25.38;98912.25;4861371;29;20034;-42
2023/07/25 11:03:36;;;;;;;9.73;7.20;;;;;;;39.68;25.35;98904.41;4861281;29;20115;-44
2023/07/25 11:06:08;;;;;;;10.43;6.82;;;;;;;40.26;24.72;98895.13;4861397;29;20093;-42
2023/07/25 11:08:35;;;;;;;12.23;7.28;;;;;;;39.40;25.88;98877.78;4861928;29;20184;-42
2023/07/25 11:11:11;;;;;;;8.93;6.78;;;;;;;39.54;26.06;98884.38;4862204;29;20037;-43
2023/07/25 11:13:40;;;;;;;8.65;6.95;;;;;;;39.46;26.11;98889.25;4861626;29;20167;-44
2023/07/25 11:16:07;;;;;;;10.48;7.13;;;;;;;39.00;26.89;98877.53;4861791;29;20089;-42
2023/07/25 11:18:37;;;;;;;11.10;6.40;;;;;;;38.59;27.03;98870.03;4861106;29;20057;-42
2023/07/25 11:21:05;;;;;;;10.30;6.70;;;;;;;39.58;26.42;98874.72;4860933;29;20041;-40